sensor_id;sensor_type;location;lat;lon;timestamp;P1;durP1;ratioP1;P2;durP2;ratioP2
68140;SDS011;54941;52.220;104.306;2023-03-21T00:01:21;5.15;;;1.92;;
68140;SDS011;54941;52.220;104.306;2023-03-21T00:03:47;4.95;;;2.75;;
68140;SDS011;54941;52.220;104.306;2023-03-21T00:06:14;6.10;;;2.38;;
68140;SDS011;54941;52.220;104.306;2023-03-21T00:08:40;3.45;;;1.33;;
68140;SDS011;54941;52.220;104.306;2023-03-21T00:11:07;8.32;;;2.53;;
68140;SDS011;54941;52.220;104.306;2023-03-21T00:13:34;5.82;;;2.08;;
68140;SDS011;54941;52.220;104.306;2023-03-21T00:16:05;6.72;;;2.97;;
68140;SDS011;54941;52.220;104.306;2023-03-21T00:18:34;17.40;;;2.75;;
68140;SDS011;54941;52.220;104.306;2023-03-21T00:21:02;5.80;;;2.30;;
68140;SDS011;54941;52.220;104.306;2023-03-21T00:23:30;6.75;;;2.67;;
68140;SDS011;54941;52.220;104.306;2023-03-21T00:25:57;4.57;;;2.03;;
68140;SDS011;54941;52.220;104.306;2023-03-21T00:28:24;6.20;;;2.40;;
68140;SDS011;54941;52.220;104.306;2023-03-21T00:30:55;5.90;;;2.10;;
68140;SDS011;54941;52.220;104.306;2023-03-21T00:33:22;6.45;;;1.92;;
68140;SDS011;54941;52.220;104.306;2023-03-21T00:35:50;7.07;;;1.77;;
68140;SDS011;54941;52.220;104.306;2023-03-21T00:38:17;4.13;;;1.77;;
68140;SDS011;54941;52.220;104.306;2023-03-21T00:40:44;5.63;;;1.73;;
68140;SDS011;54941;52.220;104.306;2023-03-21T00:43:11;5.82;;;2.15;;
68140;SDS011;54941;52.220;104.306;2023-03-21T00:45:38;6.07;;;2.55;;
68140;SDS011;54941;52.220;104.306;2023-03-21T00:48:07;4.85;;;2.00;;
68140;SDS011;54941;52.220;104.306;2023-03-21T00:50:34;6.88;;;2.35;;
68140;SDS011;54941;52.220;104.306;2023-03-21T00:53:02;5.25;;;2.33;;
68140;SDS011;54941;52.220;104.306;2023-03-21T00:55:28;3.05;;;1.35;;
68140;SDS011;54941;52.220;104.306;2023-03-21T00:57:54;4.55;;;2.30;;
68140;SDS011;54941;52.220;104.306;2023-03-21T01:00:21;5.90;;;1.88;;
68140;SDS011;54941;52.220;104.306;2023-03-21T01:02:47;4.82;;;1.63;;
68140;SDS011;54941;52.220;104.306;2023-03-21T01:05:14;6.03;;;2.20;;
68140;SDS011;54941;52.220;104.306;2023-03-21T01:07:40;6.47;;;2.20;;
68140;SDS011;54941;52.220;104.306;2023-03-21T01:10:09;2.35;;;1.30;;
68140;SDS011;54941;52.220;104.306;2023-03-21T01:12:35;1.70;;;0.85;;
68140;SDS011;54941;52.220;104.306;2023-03-21T01:15:02;2.10;;;1.10;;
68140;SDS011;54941;52.220;104.306;2023-03-21T01:17:29;5.65;;;1.75;;
68140;SDS011;54941;52.220;104.306;2023-03-21T01:19:55;4.70;;;2.03;;
68140;SDS011;54941;52.220;104.306;2023-03-21T01:22:21;2.53;;;1.23;;
68140;SDS011;54941;52.220;104.306;2023-03-21T01:24:48;3.60;;;1.42;;
68140;SDS011;54941;52.220;104.306;2023-03-21T01:27:16;9.18;;;2.65;;
68140;SDS011;54941;52.220;104.306;2023-03-21T01:29:42;6.63;;;2.08;;
68140;SDS011;54941;52.220;104.306;2023-03-21T01:32:08;5.80;;;1.77;;
68140;SDS011;54941;52.220;104.306;2023-03-21T01:34:35;3.88;;;1.60;;
68140;SDS011;54941;52.220;104.306;2023-03-21T01:37:01;5.15;;;2.15;;
68140;SDS011;54941;52.220;104.306;2023-03-21T01:39:27;8.80;;;2.45;;
68140;SDS011;54941;52.220;104.306;2023-03-21T01:41:54;4.22;;;1.27;;
68140;SDS011;54941;52.220;104.306;2023-03-21T01:44:22;5.63;;;1.63;;
68140;SDS011;54941;52.220;104.306;2023-03-21T01:46:51;5.68;;;2.03;;
68140;SDS011;54941;52.220;104.306;2023-03-21T01:49:18;4.57;;;2.00;;
68140;SDS011;54941;52.220;104.306;2023-03-21T01:51:48;4.55;;;1.63;;
68140;SDS011;54941;52.220;104.306;2023-03-21T01:54:19;4.55;;;1.20;;
68140;SDS011;54941;52.220;104.306;2023-03-21T01:56:49;5.18;;;2.17;;
68140;SDS011;54941;52.220;104.306;2023-03-21T01:59:19;4.40;;;1.63;;
68140;SDS011;54941;52.220;104.306;2023-03-21T02:01:50;7.40;;;2.55;;
68140;SDS011;54941;52.220;104.306;2023-03-21T02:04:17;5.03;;;1.63;;
68140;SDS011;54941;52.220;104.306;2023-03-21T02:06:46;5.93;;;1.77;;
68140;SDS011;54941;52.220;104.306;2023-03-21T02:09:17;7.32;;;1.90;;
68140;SDS011;54941;52.220;104.306;2023-03-21T02:11:47;3.00;;;1.23;;
68140;SDS011;54941;52.220;104.306;2023-03-21T02:14:15;4.65;;;1.98;;
68140;SDS011;54941;52.220;104.306;2023-03-21T02:16:46;3.70;;;1.77;;
68140;SDS011;54941;52.220;104.306;2023-03-21T02:22:44;7.35;;;2.67;;
68140;SDS011;54941;52.220;104.306;2023-03-21T02:25:31;5.95;;;2.58;;
68140;SDS011;54941;52.220;104.306;2023-03-21T02:28:21;6.88;;;1.83;;
68140;SDS011;54941;52.220;104.306;2023-03-21T02:37:05;6.55;;;1.58;;
68140;SDS011;54941;52.220;104.306;2023-03-21T02:39:49;4.55;;;1.52;;
68140;SDS011;54941;52.220;104.306;2023-03-21T02:42:26;3.50;;;1.63;;
68140;SDS011;54941;52.220;104.306;2023-03-21T02:45:00;7.93;;;2.67;;
68140;SDS011;54941;52.220;104.306;2023-03-21T02:47:33;2.85;;;1.10;;
68140;SDS011;54941;52.220;104.306;2023-03-21T02:50:04;8.77;;;2.15;;
68140;SDS011;54941;52.220;104.306;2023-03-21T02:52:38;9.18;;;2.38;;
68140;SDS011;54941;52.220;104.306;2023-03-21T02:55:11;7.05;;;1.55;;
68140;SDS011;54941;52.220;104.306;2023-03-21T02:57:40;5.05;;;1.85;;
68140;SDS011;54941;52.220;104.306;2023-03-21T03:00:08;4.57;;;1.40;;
68140;SDS011;54941;52.220;104.306;2023-03-21T03:02:38;3.30;;;1.52;;
68140;SDS011;54941;52.220;104.306;2023-03-21T03:05:10;3.40;;;1.63;;
68140;SDS011;54941;52.220;104.306;2023-03-21T03:07:41;5.20;;;2.13;;
68140;SDS011;54941;52.220;104.306;2023-03-21T03:10:34;3.35;;;1.67;;
68140;SDS011;54941;52.220;104.306;2023-03-21T03:13:11;10.82;;;2.78;;
68140;SDS011;54941;52.220;104.306;2023-03-21T03:15:49;4.43;;;1.65;;
68140;SDS011;54941;52.220;104.306;2023-03-21T03:18:26;4.13;;;1.98;;
68140;SDS011;54941;52.220;104.306;2023-03-21T03:21:01;4.90;;;1.63;;
68140;SDS011;54941;52.220;104.306;2023-03-21T03:23:37;6.72;;;2.15;;
68140;SDS011;54941;52.220;104.306;2023-03-21T03:26:10;5.57;;;1.70;;
68140;SDS011;54941;52.220;104.306;2023-03-21T03:28:41;5.85;;;1.55;;
68140;SDS011;54941;52.220;104.306;2023-03-21T03:31:12;3.55;;;1.58;;
68140;SDS011;54941;52.220;104.306;2023-03-21T03:33:43;4.28;;;1.60;;
68140;SDS011;54941;52.220;104.306;2023-03-21T03:36:14;5.00;;;2.55;;
68140;SDS011;54941;52.220;104.306;2023-03-21T03:38:44;8.10;;;2.47;;
68140;SDS011;54941;52.220;104.306;2023-03-21T03:41:14;6.88;;;2.60;;
68140;SDS011;54941;52.220;104.306;2023-03-21T03:43:47;5.00;;;1.95;;
68140;SDS011;54941;52.220;104.306;2023-03-21T03:46:20;8.50;;;2.20;;
68140;SDS011;54941;52.220;104.306;2023-03-21T03:48:53;3.35;;;1.58;;
68140;SDS011;54941;52.220;104.306;2023-03-21T03:51:23;7.68;;;1.77;;
68140;SDS011;54941;52.220;104.306;2023-03-21T03:53:56;6.35;;;2.58;;
68140;SDS011;54941;52.220;104.306;2023-03-21T03:56:26;5.85;;;2.60;;
68140;SDS011;54941;52.220;104.306;2023-03-21T03:58:55;4.45;;;1.92;;
68140;SDS011;54941;52.220;104.306;2023-03-21T04:01:22;5.50;;;2.13;;
68140;SDS011;54941;52.220;104.306;2023-03-21T04:03:48;8.52;;;3.20;;
68140;SDS011;54941;52.220;104.306;2023-03-21T04:06:15;4.80;;;1.60;;
68140;SDS011;54941;52.220;104.306;2023-03-21T04:08:42;4.18;;;2.20;;
68140;SDS011;54941;52.220;104.306;2023-03-21T04:11:11;5.45;;;1.80;;
68140;SDS011;54941;52.220;104.306;2023-03-21T04:13:39;8.90;;;2.42;;
68140;SDS011;54941;52.220;104.306;2023-03-21T04:16:05;7.13;;;2.83;;
68140;SDS011;54941;52.220;104.306;2023-03-21T04:18:32;12.88;;;3.80;;
68140;SDS011;54941;52.220;104.306;2023-03-21T04:20:59;6.18;;;2.45;;
68140;SDS011;54941;52.220;104.306;2023-03-21T04:23:25;5.95;;;2.72;;
68140;SDS011;54941;52.220;104.306;2023-03-21T04:25:51;4.15;;;1.70;;
68140;SDS011;54941;52.220;104.306;2023-03-21T04:28:19;4.15;;;1.50;;
68140;SDS011;54941;52.220;104.306;2023-03-21T04:30:46;5.32;;;2.15;;
68140;SDS011;54941;52.220;104.306;2023-03-21T04:33:13;5.60;;;2.05;;
68140;SDS011;54941;52.220;104.306;2023-03-21T04:35:40;5.07;;;1.65;;
68140;SDS011;54941;52.220;104.306;2023-03-21T04:38:06;11.18;;;3.22;;
68140;SDS011;54941;52.220;104.306;2023-03-21T04:40:32;9.95;;;3.50;;
68140;SDS011;54941;52.220;104.306;2023-03-21T04:42:59;3.05;;;1.48;;
68140;SDS011;54941;52.220;104.306;2023-03-21T04:45:30;4.70;;;1.98;;
68140;SDS011;54941;52.220;104.306;2023-03-21T04:47:59;9.60;;;2.47;;
68140;SDS011;54941;52.220;104.306;2023-03-21T04:50:26;7.05;;;2.33;;
68140;SDS011;54941;52.220;104.306;2023-03-21T04:52:52;4.28;;;1.70;;
68140;SDS011;54941;52.220;104.306;2023-03-21T04:55:18;7.22;;;2.00;;
68140;SDS011;54941;52.220;104.306;2023-03-21T04:57:45;4.93;;;2.35;;
68140;SDS011;54941;52.220;104.306;2023-03-21T05:00:12;8.40;;;3.05;;
68140;SDS011;54941;52.220;104.306;2023-03-21T05:02:40;4.40;;;2.15;;
68140;SDS011;54941;52.220;104.306;2023-03-21T05:05:07;7.38;;;2.38;;
68140;SDS011;54941;52.220;104.306;2023-03-21T05:07:34;4.38;;;2.05;;
68140;SDS011;54941;52.220;104.306;2023-03-21T05:10:00;8.98;;;2.75;;
68140;SDS011;54941;52.220;104.306;2023-03-21T05:12:28;8.20;;;2.10;;
68140;SDS011;54941;52.220;104.306;2023-03-21T05:14:54;7.03;;;2.25;;
68140;SDS011;54941;52.220;104.306;2023-03-21T05:17:21;3.50;;;1.90;;
68140;SDS011;54941;52.220;104.306;2023-03-21T05:19:49;4.82;;;2.13;;
68140;SDS011;54941;52.220;104.306;2023-03-21T05:22:15;8.13;;;2.00;;
68140;SDS011;54941;52.220;104.306;2023-03-21T05:24:41;9.38;;;2.47;;
68140;SDS011;54941;52.220;104.306;2023-03-21T05:27:08;4.28;;;1.92;;
68140;SDS011;54941;52.220;104.306;2023-03-21T05:29:34;5.97;;;2.15;;
68140;SDS011;54941;52.220;104.306;2023-03-21T05:32:01;6.10;;;2.42;;
68140;SDS011;54941;52.220;104.306;2023-03-21T05:34:27;4.03;;;1.25;;
68140;SDS011;54941;52.220;104.306;2023-03-21T05:36:55;12.48;;;2.67;;
68140;SDS011;54941;52.220;104.306;2023-03-21T05:39:22;4.07;;;1.52;;
68140;SDS011;54941;52.220;104.306;2023-03-21T05:41:48;5.93;;;1.73;;
68140;SDS011;54941;52.220;104.306;2023-03-21T05:44:14;5.15;;;1.48;;
68140;SDS011;54941;52.220;104.306;2023-03-21T05:46:41;4.07;;;1.55;;
68140;SDS011;54941;52.220;104.306;2023-03-21T05:49:08;3.25;;;1.25;;
68140;SDS011;54941;52.220;104.306;2023-03-21T05:51:36;4.57;;;1.45;;
68140;SDS011;54941;52.220;104.306;2023-03-21T05:54:04;7.53;;;2.30;;
68140;SDS011;54941;52.220;104.306;2023-03-21T05:56:30;3.50;;;1.52;;
68140;SDS011;54941;52.220;104.306;2023-03-21T05:58:59;7.28;;;2.17;;
68140;SDS011;54941;52.220;104.306;2023-03-21T06:01:26;7.32;;;2.00;;
68140;SDS011;54941;52.220;104.306;2023-03-21T06:03:52;8.15;;;3.08;;
68140;SDS011;54941;52.220;104.306;2023-03-21T06:06:19;7.80;;;3.10;;
68140;SDS011;54941;52.220;104.306;2023-03-21T06:08:48;5.35;;;2.08;;
68140;SDS011;54941;52.220;104.306;2023-03-21T06:11:21;5.43;;;1.98;;
68140;SDS011;54941;52.220;104.306;2023-03-21T06:13:50;6.97;;;3.45;;
68140;SDS011;54941;52.220;104.306;2023-03-21T06:16:16;5.22;;;1.83;;
68140;SDS011;54941;52.220;104.306;2023-03-21T06:18:43;10.27;;;2.42;;
68140;SDS011;54941;52.220;104.306;2023-03-21T06:21:09;3.25;;;1.58;;
68140;SDS011;54941;52.220;104.306;2023-03-21T06:23:36;2.72;;;1.02;;
68140;SDS011;54941;52.220;104.306;2023-03-21T06:26:02;8.90;;;2.80;;
68140;SDS011;54941;52.220;104.306;2023-03-21T06:28:30;6.07;;;2.33;;
68140;SDS011;54941;52.220;104.306;2023-03-21T06:30:57;8.32;;;2.95;;
68140;SDS011;54941;52.220;104.306;2023-03-21T06:33:23;7.80;;;2.55;;
68140;SDS011;54941;52.220;104.306;2023-03-21T06:35:50;10.60;;;2.33;;
68140;SDS011;54941;52.220;104.306;2023-03-21T06:38:17;11.45;;;2.28;;
68140;SDS011;54941;52.220;104.306;2023-03-21T06:40:44;6.22;;;1.20;;
68140;SDS011;54941;52.220;104.306;2023-03-21T06:43:10;6.10;;;1.85;;
68140;SDS011;54941;52.220;104.306;2023-03-21T06:45:41;8.40;;;2.05;;
68140;SDS011;54941;52.220;104.306;2023-03-21T06:48:07;3.75;;;1.63;;
68140;SDS011;54941;52.220;104.306;2023-03-21T06:50:34;9.40;;;3.00;;
68140;SDS011;54941;52.220;104.306;2023-03-21T06:53:01;7.18;;;1.98;;
68140;SDS011;54941;52.220;104.306;2023-03-21T06:55:27;3.78;;;1.23;;
68140;SDS011;54941;52.220;104.306;2023-03-21T06:57:54;4.68;;;1.80;;
68140;SDS011;54941;52.220;104.306;2023-03-21T07:00:23;6.75;;;2.67;;
68140;SDS011;54941;52.220;104.306;2023-03-21T07:02:51;4.90;;;1.30;;
68140;SDS011;54941;52.220;104.306;2023-03-21T07:05:21;6.70;;;2.17;;
68140;SDS011;54941;52.220;104.306;2023-03-21T07:07:47;7.55;;;3.13;;
68140;SDS011;54941;52.220;104.306;2023-03-21T07:10:16;5.93;;;2.38;;
68140;SDS011;54941;52.220;104.306;2023-03-21T07:12:42;6.90;;;2.33;;
68140;SDS011;54941;52.220;104.306;2023-03-21T07:15:09;6.03;;;2.10;;
68140;SDS011;54941;52.220;104.306;2023-03-21T07:17:35;3.92;;;1.80;;
68140;SDS011;54941;52.220;104.306;2023-03-21T07:20:04;5.82;;;2.28;;
68140;SDS011;54941;52.220;104.306;2023-03-21T07:22:33;2.42;;;0.82;;
68140;SDS011;54941;52.220;104.306;2023-03-21T07:25:04;8.07;;;2.40;;
68140;SDS011;54941;52.220;104.306;2023-03-21T07:27:34;6.25;;;1.80;;
68140;SDS011;54941;52.220;104.306;2023-03-21T07:30:01;3.85;;;1.77;;
68140;SDS011;54941;52.220;104.306;2023-03-21T07:32:31;6.40;;;2.50;;
68140;SDS011;54941;52.220;104.306;2023-03-21T07:37:27;9.18;;;2.50;;
68140;SDS011;54941;52.220;104.306;2023-03-21T07:39:54;5.28;;;1.75;;
68140;SDS011;54941;52.220;104.306;2023-03-21T07:42:20;7.97;;;2.00;;
68140;SDS011;54941;52.220;104.306;2023-03-21T07:44:47;5.75;;;2.40;;
68140;SDS011;54941;52.220;104.306;2023-03-21T07:47:13;5.88;;;2.83;;
68140;SDS011;54941;52.220;104.306;2023-03-21T07:49:39;6.63;;;2.08;;
68140;SDS011;54941;52.220;104.306;2023-03-21T07:52:06;7.57;;;2.90;;
68140;SDS011;54941;52.220;104.306;2023-03-21T07:54:36;7.00;;;2.30;;
68140;SDS011;54941;52.220;104.306;2023-03-21T07:57:03;5.38;;;2.65;;
68140;SDS011;54941;52.220;104.306;2023-03-21T07:59:29;13.18;;;2.90;;
68140;SDS011;54941;52.220;104.306;2023-03-21T08:01:56;9.25;;;2.72;;
68140;SDS011;54941;52.220;104.306;2023-03-21T08:04:22;10.18;;;3.28;;
68140;SDS011;54941;52.220;104.306;2023-03-21T08:06:49;10.55;;;2.60;;
68140;SDS011;54941;52.220;104.306;2023-03-21T08:09:16;5.93;;;2.88;;
68140;SDS011;54941;52.220;104.306;2023-03-21T08:11:44;6.25;;;2.47;;
68140;SDS011;54941;52.220;104.306;2023-03-21T08:14:10;3.58;;;1.80;;
68140;SDS011;54941;52.220;104.306;2023-03-21T08:16:37;7.38;;;2.45;;
68140;SDS011;54941;52.220;104.306;2023-03-21T08:19:03;5.40;;;2.05;;
68140;SDS011;54941;52.220;104.306;2023-03-21T08:21:31;8.70;;;3.53;;
68140;SDS011;54941;52.220;104.306;2023-03-21T08:23:58;9.18;;;3.45;;
68140;SDS011;54941;52.220;104.306;2023-03-21T08:26:24;10.00;;;2.42;;
68140;SDS011;54941;52.220;104.306;2023-03-21T08:28:55;11.38;;;2.53;;
68140;SDS011;54941;52.220;104.306;2023-03-21T08:31:23;9.02;;;3.00;;
68140;SDS011;54941;52.220;104.306;2023-03-21T08:33:52;5.60;;;1.95;;
68140;SDS011;54941;52.220;104.306;2023-03-21T08:36:19;14.48;;;2.65;;
68140;SDS011;54941;52.220;104.306;2023-03-21T08:38:45;4.78;;;2.10;;
68140;SDS011;54941;52.220;104.306;2023-03-21T08:41:12;6.90;;;3.10;;
68140;SDS011;54941;52.220;104.306;2023-03-21T08:43:38;5.88;;;2.10;;
68140;SDS011;54941;52.220;104.306;2023-03-21T08:46:06;8.27;;;2.50;;
68140;SDS011;54941;52.220;104.306;2023-03-21T08:48:33;6.50;;;2.72;;
68140;SDS011;54941;52.220;104.306;2023-03-21T08:50:59;5.55;;;1.98;;
68140;SDS011;54941;52.220;104.306;2023-03-21T08:53:26;7.03;;;2.03;;
68140;SDS011;54941;52.220;104.306;2023-03-21T08:55:54;6.03;;;2.67;;
68140;SDS011;54941;52.220;104.306;2023-03-21T08:58:21;6.63;;;2.25;;
68140;SDS011;54941;52.220;104.306;2023-03-21T09:00:47;6.45;;;1.90;;
68140;SDS011;54941;52.220;104.306;2023-03-21T09:03:15;3.22;;;1.40;;
68140;SDS011;54941;52.220;104.306;2023-03-21T09:05:41;5.97;;;2.80;;
68140;SDS011;54941;52.220;104.306;2023-03-21T09:08:08;6.38;;;2.53;;
68140;SDS011;54941;52.220;104.306;2023-03-21T09:10:34;7.45;;;3.85;;
68140;SDS011;54941;52.220;104.306;2023-03-21T09:13:00;6.88;;;3.05;;
68140;SDS011;54941;52.220;104.306;2023-03-21T09:15:27;10.48;;;2.85;;
68140;SDS011;54941;52.220;104.306;2023-03-21T09:17:54;4.57;;;1.95;;
68140;SDS011;54941;52.220;104.306;2023-03-21T09:20:22;5.32;;;2.70;;
68140;SDS011;54941;52.220;104.306;2023-03-21T09:22:50;4.97;;;1.15;;
68140;SDS011;54941;52.220;104.306;2023-03-21T09:25:17;4.60;;;3.53;;
68140;SDS011;54941;52.220;104.306;2023-03-21T09:27:44;5.13;;;1.75;;
68140;SDS011;54941;52.220;104.306;2023-03-21T09:30:11;5.55;;;2.40;;
68140;SDS011;54941;52.220;104.306;2023-03-21T09:32:38;4.63;;;1.80;;
68140;SDS011;54941;52.220;104.306;2023-03-21T09:35:05;5.35;;;1.95;;
68140;SDS011;54941;52.220;104.306;2023-03-21T09:37:33;4.13;;;1.75;;
68140;SDS011;54941;52.220;104.306;2023-03-21T09:39:59;4.78;;;1.35;;
68140;SDS011;54941;52.220;104.306;2023-03-21T09:42:28;8.32;;;2.45;;
68140;SDS011;54941;52.220;104.306;2023-03-21T09:45:05;3.97;;;1.55;;
68140;SDS011;54941;52.220;104.306;2023-03-21T09:47:37;6.68;;;1.95;;
68140;SDS011;54941;52.220;104.306;2023-03-21T09:50:09;4.57;;;1.63;;
68140;SDS011;54941;52.220;104.306;2023-03-21T09:52:41;7.63;;;2.38;;
68140;SDS011;54941;52.220;104.306;2023-03-21T09:55:13;11.38;;;2.53;;
68140;SDS011;54941;52.220;104.306;2023-03-21T09:57:43;4.05;;;1.90;;
68140;SDS011;54941;52.220;104.306;2023-03-21T10:00:11;4.72;;;1.83;;
68140;SDS011;54941;52.220;104.306;2023-03-21T10:02:44;6.18;;;2.53;;
68140;SDS011;54941;52.220;104.306;2023-03-21T10:05:14;7.63;;;2.03;;
68140;SDS011;54941;52.220;104.306;2023-03-21T10:07:45;11.82;;;3.17;;
68140;SDS011;54941;52.220;104.306;2023-03-21T10:10:19;12.32;;;3.40;;
68140;SDS011;54941;52.220;104.306;2023-03-21T10:12:49;3.47;;;1.23;;
68140;SDS011;54941;52.220;104.306;2023-03-21T10:15:18;8.57;;;2.67;;
68140;SDS011;54941;52.220;104.306;2023-03-21T10:17:49;9.45;;;3.47;;
68140;SDS011;54941;52.220;104.306;2023-03-21T10:20:22;4.95;;;1.92;;
68140;SDS011;54941;52.220;104.306;2023-03-21T10:22:51;8.32;;;2.30;;
68140;SDS011;54941;52.220;104.306;2023-03-21T10:25:20;5.70;;;2.20;;
68140;SDS011;54941;52.220;104.306;2023-03-21T10:27:50;6.18;;;1.85;;
68140;SDS011;54941;52.220;104.306;2023-03-21T10:30:27;12.05;;;3.13;;
68140;SDS011;54941;52.220;104.306;2023-03-21T10:33:02;5.97;;;2.67;;
68140;SDS011;54941;52.220;104.306;2023-03-21T10:35:31;8.55;;;2.63;;
68140;SDS011;54941;52.220;104.306;2023-03-21T10:38:02;6.32;;;2.15;;
68140;SDS011;54941;52.220;104.306;2023-03-21T10:40:31;7.50;;;2.90;;
68140;SDS011;54941;52.220;104.306;2023-03-21T10:43:14;6.82;;;2.63;;
68140;SDS011;54941;52.220;104.306;2023-03-21T10:45:43;9.45;;;3.03;;
68140;SDS011;54941;52.220;104.306;2023-03-21T10:48:10;4.43;;;1.55;;
68140;SDS011;54941;52.220;104.306;2023-03-21T10:50:40;5.53;;;1.73;;
68140;SDS011;54941;52.220;104.306;2023-03-21T10:55:42;6.75;;;2.45;;
68140;SDS011;54941;52.220;104.306;2023-03-21T10:58:13;8.10;;;2.65;;
68140;SDS011;54941;52.220;104.306;2023-03-21T11:00:42;10.27;;;3.28;;
68140;SDS011;54941;52.220;104.306;2023-03-21T11:03:16;2.78;;;1.15;;
68140;SDS011;54941;52.220;104.306;2023-03-21T11:05:47;7.47;;;3.10;;
68140;SDS011;54941;52.220;104.306;2023-03-21T11:08:19;4.05;;;1.60;;
68140;SDS011;54941;52.220;104.306;2023-03-21T11:10:50;12.60;;;2.20;;
68140;SDS011;54941;52.220;104.306;2023-03-21T11:13:22;7.10;;;2.90;;
68140;SDS011;54941;52.220;104.306;2023-03-21T11:15:51;6.32;;;2.22;;
68140;SDS011;54941;52.220;104.306;2023-03-21T11:18:20;5.18;;;2.70;;
68140;SDS011;54941;52.220;104.306;2023-03-21T11:20:48;6.38;;;3.05;;
68140;SDS011;54941;52.220;104.306;2023-03-21T11:23:16;14.55;;;3.08;;
68140;SDS011;54941;52.220;104.306;2023-03-21T11:25:45;8.93;;;2.53;;
68140;SDS011;54941;52.220;104.306;2023-03-21T11:28:15;12.57;;;3.60;;
68140;SDS011;54941;52.220;104.306;2023-03-21T11:30:49;7.00;;;2.35;;
68140;SDS011;54941;52.220;104.306;2023-03-21T11:33:22;12.35;;;3.78;;
68140;SDS011;54941;52.220;104.306;2023-03-21T11:36:01;9.13;;;3.63;;
68140;SDS011;54941;52.220;104.306;2023-03-21T11:38:30;14.32;;;3.60;;
68140;SDS011;54941;52.220;104.306;2023-03-21T11:41:02;10.82;;;3.42;;
68140;SDS011;54941;52.220;104.306;2023-03-21T11:43:31;4.85;;;2.33;;
68140;SDS011;54941;52.220;104.306;2023-03-21T11:46:00;7.18;;;3.28;;
68140;SDS011;54941;52.220;104.306;2023-03-21T11:48:31;11.20;;;3.72;;
68140;SDS011;54941;52.220;104.306;2023-03-21T11:51:03;15.00;;;3.92;;
68140;SDS011;54941;52.220;104.306;2023-03-21T11:53:39;5.45;;;1.77;;
68140;SDS011;54941;52.220;104.306;2023-03-21T11:56:23;7.85;;;3.15;;
68140;SDS011;54941;52.220;104.306;2023-03-21T12:01:48;6.90;;;3.20;;
68140;SDS011;54941;52.220;104.306;2023-03-21T12:04:32;6.57;;;3.10;;
68140;SDS011;54941;52.220;104.306;2023-03-21T12:07:06;5.85;;;2.72;;
68140;SDS011;54941;52.220;104.306;2023-03-21T12:09:41;12.40;;;4.40;;
68140;SDS011;54941;52.220;104.306;2023-03-21T12:12:16;10.20;;;4.28;;
68140;SDS011;54941;52.220;104.306;2023-03-21T12:14:57;7.97;;;3.90;;
68140;SDS011;54941;52.220;104.306;2023-03-21T12:17:32;4.65;;;2.67;;
68140;SDS011;54941;52.220;104.306;2023-03-21T12:20:12;11.25;;;4.30;;
68140;SDS011;54941;52.220;104.306;2023-03-21T12:22:51;11.10;;;3.85;;
68140;SDS011;54941;52.220;104.306;2023-03-21T12:25:32;11.57;;;4.57;;
68140;SDS011;54941;52.220;104.306;2023-03-21T12:28:08;9.68;;;4.32;;
68140;SDS011;54941;52.220;104.306;2023-03-21T12:30:50;9.45;;;3.15;;
68140;SDS011;54941;52.220;104.306;2023-03-21T12:33:37;11.70;;;4.93;;
68140;SDS011;54941;52.220;104.306;2023-03-21T12:36:21;14.15;;;4.57;;
68140;SDS011;54941;52.220;104.306;2023-03-21T12:39:00;9.52;;;3.38;;
68140;SDS011;54941;52.220;104.306;2023-03-21T12:41:38;14.02;;;4.55;;
68140;SDS011;54941;52.220;104.306;2023-03-21T12:44:11;9.23;;;3.38;;
68140;SDS011;54941;52.220;104.306;2023-03-21T12:46:40;11.65;;;3.75;;
68140;SDS011;54941;52.220;104.306;2023-03-21T12:49:12;10.73;;;4.53;;
68140;SDS011;54941;52.220;104.306;2023-03-21T12:51:45;10.48;;;3.47;;
68140;SDS011;54941;52.220;104.306;2023-03-21T12:54:16;16.83;;;4.00;;
68140;SDS011;54941;52.220;104.306;2023-03-21T12:56:51;11.38;;;3.97;;
68140;SDS011;54941;52.220;104.306;2023-03-21T12:59:24;11.05;;;3.17;;
68140;SDS011;54941;52.220;104.306;2023-03-21T13:01:57;6.35;;;3.08;;
68140;SDS011;54941;52.220;104.306;2023-03-21T13:04:43;14.73;;;3.78;;
68140;SDS011;54941;52.220;104.306;2023-03-21T13:07:16;9.80;;;3.70;;
68140;SDS011;54941;52.220;104.306;2023-03-21T13:09:45;10.93;;;3.40;;
68140;SDS011;54941;52.220;104.306;2023-03-21T13:12:18;12.13;;;4.00;;
68140;SDS011;54941;52.220;104.306;2023-03-21T13:15:00;8.50;;;3.75;;
68140;SDS011;54941;52.220;104.306;2023-03-21T13:17:40;12.88;;;3.67;;
68140;SDS011;54941;52.220;104.306;2023-03-21T13:20:12;7.03;;;2.92;;
68140;SDS011;54941;52.220;104.306;2023-03-21T13:22:47;10.68;;;3.55;;
68140;SDS011;54941;52.220;104.306;2023-03-21T13:25:16;14.68;;;3.92;;
68140;SDS011;54941;52.220;104.306;2023-03-21T13:27:49;12.00;;;4.15;;
68140;SDS011;54941;52.220;104.306;2023-03-21T13:30:19;15.57;;;5.38;;
68140;SDS011;54941;52.220;104.306;2023-03-21T13:32:48;13.43;;;5.47;;
68140;SDS011;54941;52.220;104.306;2023-03-21T13:35:17;12.77;;;4.55;;
68140;SDS011;54941;52.220;104.306;2023-03-21T13:37:49;9.70;;;4.78;;
68140;SDS011;54941;52.220;104.306;2023-03-21T13:40:24;18.13;;;5.18;;
68140;SDS011;54941;52.220;104.306;2023-03-21T13:42:55;11.13;;;4.38;;
68140;SDS011;54941;52.220;104.306;2023-03-21T13:45:27;17.33;;;4.60;;
68140;SDS011;54941;52.220;104.306;2023-03-21T13:47:56;12.50;;;5.25;;
68140;SDS011;54941;52.220;104.306;2023-03-21T13:50:24;12.90;;;5.00;;
68140;SDS011;54941;52.220;104.306;2023-03-21T13:53:20;6.47;;;2.63;;
68140;SDS011;54941;52.220;104.306;2023-03-21T13:56:13;7.95;;;3.38;;
68140;SDS011;54941;52.220;104.306;2023-03-21T13:58:50;7.70;;;3.30;;
68140;SDS011;54941;52.220;104.306;2023-03-21T14:01:29;11.77;;;4.28;;
68140;SDS011;54941;52.220;104.306;2023-03-21T14:06:55;7.35;;;3.63;;
68140;SDS011;54941;52.220;104.306;2023-03-21T14:09:25;10.15;;;3.42;;
68140;SDS011;54941;52.220;104.306;2023-03-21T14:14:21;16.00;;;4.38;;
68140;SDS011;54941;52.220;104.306;2023-03-21T14:19:18;10.68;;;4.82;;
68140;SDS011;54941;52.220;104.306;2023-03-21T14:21:46;13.70;;;4.35;;
68140;SDS011;54941;52.220;104.306;2023-03-21T14:24:14;14.75;;;5.03;;
68140;SDS011;54941;52.220;104.306;2023-03-21T14:26:42;15.77;;;4.97;;
68140;SDS011;54941;52.220;104.306;2023-03-21T14:29:17;10.15;;;3.60;;
68140;SDS011;54941;52.220;104.306;2023-03-21T14:31:48;13.70;;;4.50;;
68140;SDS011;54941;52.220;104.306;2023-03-21T14:34:16;12.52;;;4.47;;
68140;SDS011;54941;52.220;104.306;2023-03-21T14:36:43;11.65;;;4.07;;
68140;SDS011;54941;52.220;104.306;2023-03-21T14:39:12;17.13;;;5.85;;
68140;SDS011;54941;52.220;104.306;2023-03-21T14:41:43;14.85;;;4.60;;
68140;SDS011;54941;52.220;104.306;2023-03-21T14:44:19;14.25;;;4.63;;
68140;SDS011;54941;52.220;104.306;2023-03-21T14:46:46;10.57;;;4.07;;
68140;SDS011;54941;52.220;104.306;2023-03-21T14:49:17;11.13;;;3.72;;
68140;SDS011;54941;52.220;104.306;2023-03-21T14:51:53;8.52;;;3.95;;
68140;SDS011;54941;52.220;104.306;2023-03-21T14:54:21;14.02;;;4.32;;
68140;SDS011;54941;52.220;104.306;2023-03-21T14:56:49;3.83;;;1.42;;
68140;SDS011;54941;52.220;104.306;2023-03-21T14:59:20;13.88;;;4.45;;